Time;durP1;ratioP1;P1;durP2;ratioP2;P2;SDS_P1;SDS_P2;PMS_P1;PMS_P2;Temp;Humidity;BMP_temperature;BMP_pressure;BME280_temperature;BME280_humidity;BME280_pressure;Samples;Min_cycle;Max_cycle;Signal;HPM_P1;HPM_P2
2021/10/23 00:01:05;;;;;;;;;;;5.00;99.90;;;;;;5068011;28;19912;-76
2021/10/23 00:03:31;;;;;;;;;;;5.00;99.90;;;;;;5072996;28;19913;-75
2021/10/23 00:05:56;;;;;;;;;;;5.00;99.90;;;;;;5055431;28;19955;-76
2021/10/23 00:08:22;;;;;;;;;;;5.00;99.90;;;;;;5073010;28;20358;-75
2021/10/23 00:10:47;;;;;;;;;;;5.00;99.90;;;;;;5072279;28;19916;-76
2021/10/23 00:13:13;;;;;;;;;;;5.10;99.90;;;;;;5073259;28;19908;-76
2021/10/23 00:15:38;;;;;;;;;;;5.20;99.90;;;;;;5073619;28;20224;-75
2021/10/23 00:18:04;;;;;;;;;;;5.20;99.90;;;;;;5073037;28;20332;-76
2021/10/23 00:20:29;;;;;;;;;;;5.30;99.90;;;;;;5072435;28;19935;-76
2021/10/23 00:22:55;;;;;;;;;;;5.30;99.90;;;;;;5055287;28;19908;-76
2021/10/23 00:25:20;;;;;;;;;;;5.30;99.90;;;;;;5072989;28;19973;-75
2021/10/23 00:27:46;;;;;;;;;;;5.30;99.90;;;;;;5072934;28;19931;-76
2021/10/23 00:30:12;;;;;;;;;;;5.30;99.90;;;;;;5072383;28;19999;-76
2021/10/23 00:32:38;;;;;;;;;;;5.40;99.90;;;;;;5091864;28;19977;-75
2021/10/23 00:35:04;;;;;;;;;;;5.40;99.90;;;;;;5093240;28;19908;-75
2021/10/23 00:37:30;;;;;;;;;;;5.40;99.90;;;;;;5092583;28;19912;-76
2021/10/23 00:39:56;;;;;;;;;;;5.40;99.90;;;;;;5092757;28;19908;-76
2021/10/23 00:42:21;;;;;;;;;;;5.40;99.90;;;;;;5093106;28;19914;-75
2021/10/23 00:44:47;;;;;;;;;;;5.50;99.90;;;;;;5093813;28;19914;-75
2021/10/23 00:47:14;;;;;;;;;;;5.50;99.90;;;;;;5092762;28;19919;-75
2021/10/23 00:49:40;;;;;;;;;;;5.50;99.90;;;;;;5092185;28;19915;-75
2021/10/23 00:52:06;;;;;;;;;;;5.50;99.90;;;;;;5074512;28;19909;-74
2021/10/23 00:54:33;;;;;;;;;;;5.50;99.90;;;;;;5092677;28;20110;-76
2021/10/23 00:56:59;;;;;;;;;;;5.60;99.90;;;;;;5092637;28;20380;-76
2021/10/23 00:59:25;;;;;;;;;;;5.60;99.90;;;;;;5092414;28;19909;-75
2021/10/23 01:01:50;;;;;;;;;;;5.60;99.90;;;;;;5078720;28;19916;-76
2021/10/23 01:04:16;;;;;;;;;;;5.60;99.90;;;;;;5071910;28;19916;-76
2021/10/23 01:06:43;;;;;;;;;;;5.60;99.90;;;;;;5071905;28;19920;-75
2021/10/23 01:09:08;;;;;;;;;;;5.60;99.90;;;;;;5072349;28;19986;-76
2021/10/23 01:11:34;;;;;;;;;;;5.60;99.90;;;;;;5071900;28;19962;-75
2021/10/23 01:13:59;;;;;;;;;;;5.60;99.90;;;;;;5072041;28;20285;-75
2021/10/23 01:16:25;;;;;;;;;;;5.60;99.90;;;;;;5054044;28;19916;-75
2021/10/23 01:18:51;;;;;;;;;;;5.60;99.90;;;;;;5072080;28;20358;-75
2021/10/23 01:21:22;;;;;;;;;;;5.70;99.90;;;;;;5070802;28;19912;-75
2021/10/23 01:23:49;;;;;;;;;;;5.60;99.90;;;;;;5054198;28;19908;-75
2021/10/23 01:26:14;;;;;;;;;;;5.60;99.90;;;;;;5072067;28;19916;-75
2021/10/23 01:28:40;;;;;;;;;;;5.70;99.90;;;;;;5071861;28;19908;-75
2021/10/23 01:31:05;;;;;;;;;;;5.70;99.90;;;;;;5078300;28;19915;-76
2021/10/23 01:33:31;;;;;;;;;;;5.70;99.90;;;;;;5092016;28;19908;-76
2021/10/23 01:36:10;;;;;;;;;;;5.70;99.90;;;;;;5091919;28;19931;-75
2021/10/23 01:38:36;;;;;;;;;;;5.70;99.90;;;;;;5074023;28;19908;-76
2021/10/23 01:41:02;;;;;;;;;;;5.80;99.90;;;;;;5073313;28;19919;-76
2021/10/23 01:43:28;;;;;;;;;;;5.80;99.90;;;;;;5092094;28;19995;-76
2021/10/23 01:45:53;;;;;;;;;;;5.80;99.90;;;;;;5092147;28;19953;-76
2021/10/23 01:48:19;;;;;;;;;;;5.80;99.90;;;;;;5092235;28;19908;-76
2021/10/23 01:50:44;;;;;;;;;;;5.70;99.90;;;;;;5091360;28;19985;-75
2021/10/23 01:53:10;;;;;;;;;;;5.70;99.90;;;;;;5091987;28;19908;-76
2021/10/23 01:55:35;;;;;;;;;;;5.70;99.90;;;;;;5091877;28;19915;-76
2021/10/23 01:58:01;;;;;;;;;;;5.70;99.90;;;;;;5091693;28;19919;-75
2021/10/23 02:00:26;;;;;;;;;;;5.70;99.90;;;;;;5089768;28;20278;-76
2021/10/23 02:02:52;;;;;;;;;;;5.70;99.90;;;;;;5071518;28;20293;-76
2021/10/23 02:05:18;;;;;;;;;;;5.60;99.90;;;;;;5053574;28;19908;-76
2021/10/23 02:07:43;;;;;;;;;;;5.60;99.90;;;;;;5071544;28;20004;-76
2021/10/23 02:10:09;;;;;;;;;;;5.60;99.90;;;;;;5070911;28;19916;-76
2021/10/23 02:12:35;;;;;;;;;;;5.60;99.90;;;;;;5053380;28;20249;-76
2021/10/23 02:15:01;;;;;;;;;;;5.60;99.90;;;;;;5071456;28;19909;-74
2021/10/23 02:17:26;;;;;;;;;;;5.60;99.90;;;;;;5071506;28;20434;-74
2021/10/23 02:19:52;;;;;;;;;;;5.50;99.90;;;;;;5070801;28;19920;-74
2021/10/23 02:22:17;;;;;;;;;;;5.50;99.90;;;;;;5071413;28;19931;-72
2021/10/23 02:24:43;;;;;;;;;;;5.50;99.90;;;;;;5071355;28;19908;-76
2021/10/23 02:27:08;;;;;;;;;;;5.60;99.90;;;;;;5071228;28;20367;-73
2021/10/23 02:29:34;;;;;;;;;;;5.50;99.90;;;;;;5071178;28;19912;-75
2021/10/23 02:32:00;;;;;;;;;;;5.60;99.90;;;;;;5066995;28;19908;-76
2021/10/23 02:34:25;;;;;;;;;;;5.50;99.90;;;;;;5095003;28;20286;-76
2021/10/23 02:36:51;;;;;;;;;;;5.50;99.90;;;;;;5095433;28;19908;-76
2021/10/23 02:39:17;;;;;;;;;;;5.50;99.90;;;;;;5095491;28;19912;-74
2021/10/23 02:41:42;;;;;;;;;;;5.50;99.90;;;;;;5094903;28;19923;-74
2021/10/23 02:44:08;;;;;;;;;;;5.50;99.90;;;;;;5095439;28;20337;-72
2021/10/23 02:46:33;;;;;;;;;;;5.40;99.90;;;;;;5095468;28;20018;-74
2021/10/23 02:48:59;;;;;;;;;;;5.40;99.90;;;;;;5095225;28;20010;-74
2021/10/23 02:51:24;;;;;;;;;;;5.40;99.90;;;;;;5094904;28;20455;-73
2021/10/23 02:53:50;;;;;;;;;;;5.40;99.90;;;;;;5077054;28;19912;-74
2021/10/23 02:56:15;;;;;;;;;;;5.40;99.90;;;;;;5095185;28;19908;-74
2021/10/23 02:58:41;;;;;;;;;;;5.40;99.90;;;;;;5095091;28;19909;-74
2021/10/23 03:01:06;;;;;;;;;;;5.40;99.90;;;;;;5087432;28;20385;-73
2021/10/23 03:03:32;;;;;;;;;;;5.40;99.90;;;;;;5074499;28;19916;-74
2021/10/23 03:05:57;;;;;;;;;;;5.40;99.90;;;;;;5074672;28;19908;-74
2021/10/23 03:08:23;;;;;;;;;;;5.50;99.90;;;;;;5056733;28;19915;-74
2021/10/23 03:10:48;;;;;;;;;;;5.60;99.90;;;;;;5073820;28;20007;-72
2021/10/23 03:13:14;;;;;;;;;;;5.60;99.90;;;;;;5074640;28;19962;-74
2021/10/23 03:15:39;;;;;;;;;;;5.60;99.90;;;;;;5074428;28;19962;-74
2021/10/23 03:18:05;;;;;;;;;;;5.70;99.90;;;;;;5074332;28;19975;-73
2021/10/23 03:20:31;;;;;;;;;;;5.70;99.90;;;;;;5073794;28;19912;-74
2021/10/23 03:22:56;;;;;;;;;;;5.80;99.90;;;;;;5074820;28;19970;-74
2021/10/23 03:25:22;;;;;;;;;;;5.80;99.90;;;;;;5074098;28;19917;-74
2021/10/23 03:27:47;;;;;;;;;;;5.80;99.90;;;;;;5074354;28;19916;-74
2021/10/23 03:30:13;;;;;;;;;;;5.80;99.90;;;;;;5074035;28;19917;-74
2021/10/23 03:32:38;;;;;;;;;;;5.80;99.90;;;;;;5093599;28;19915;-74
2021/10/23 03:35:04;;;;;;;;;;;5.80;99.90;;;;;;5076678;28;19915;-74
2021/10/23 03:37:30;;;;;;;;;;;5.90;99.90;;;;;;5094224;28;20029;-74
2021/10/23 03:39:56;;;;;;;;;;;5.80;99.90;;;;;;5093611;28;20385;-74
2021/10/23 03:42:22;;;;;;;;;;;5.80;99.90;;;;;;5094387;28;19915;-74
2021/10/23 03:44:47;;;;;;;;;;;5.80;99.90;;;;;;5093364;28;19909;-73
2021/10/23 03:47:13;;;;;;;;;;;5.80;99.90;;;;;;5094287;28;19915;-74
2021/10/23 03:49:42;;;;;;;;;;;5.80;99.90;;;;;;5075794;28;19908;-74
2021/10/23 03:52:07;;;;;;;;;;;5.80;99.90;;;;;;5075852;28;19908;-74
2021/10/23 03:54:33;;;;;;;;;;;5.80;99.90;;;;;;5093848;28;20275;-74
2021/10/23 03:56:58;;;;;;;;;;;5.80;99.90;;;;;;5094115;28;19908;-74
2021/10/23 03:59:23;;;;;;;;;;;5.80;99.90;;;;;;5075803;28;20278;-73
2021/10/23 04:01:49;;;;;;;;;;;5.80;99.90;;;;;;5080310;28;19913;-74
2021/10/23 04:04:15;;;;;;;;;;;5.80;99.90;;;;;;5073371;28;20259;-74
2021/10/23 04:06:40;;;;;;;;;;;5.70;99.90;;;;;;5073560;28;20370;-74
2021/10/23 04:09:06;;;;;;;;;;;5.70;99.90;;;;;;5073509;28;19908;-73
2021/10/23 04:11:31;;;;;;;;;;;5.70;99.90;;;;;;5073361;28;20426;-75
2021/10/23 04:13:57;;;;;;;;;;;5.60;99.90;;;;;;5055905;28;19931;-76
2021/10/23 04:16:22;;;;;;;;;;;5.60;99.90;;;;;;5073773;28;19920;-76
2021/10/23 04:18:48;;;;;;;;;;;5.50;99.90;;;;;;5073334;28;20290;-76
2021/10/23 04:21:15;;;;;;;;;;;5.40;99.90;;;;;;5055126;28;20328;-76
2021/10/23 04:23:40;;;;;;;;;;;5.30;99.90;;;;;;5055318;28;20337;-74
2021/10/23 04:26:06;;;;;;;;;;;5.30;99.90;;;;;;5073462;28;19917;-76
2021/10/23 04:28:31;;;;;;;;;;;5.30;99.90;;;;;;5073466;28;19916;-76
2021/10/23 04:30:57;;;;;;;;;;;5.30;99.90;;;;;;5060548;28;19912;-75
2021/10/23 04:33:23;;;;;;;;;;;5.20;99.90;;;;;;5093702;28;19912;-74
2021/10/23 04:35:50;;;;;;;;;;;5.20;99.90;;;;;;5093457;28;19951;-74
2021/10/23 04:38:16;;;;;;;;;;;5.20;99.90;;;;;;5093107;28;20380;-74
2021/10/23 04:40:42;;;;;;;;;;;5.10;99.90;;;;;;5092391;28;20374;-74
2021/10/23 04:43:07;;;;;;;;;;;5.10;99.90;;;;;;5093134;28;19951;-75
2021/10/23 04:45:33;;;;;;;;;;;5.20;99.90;;;;;;5093464;28;20443;-75
2021/10/23 04:47:59;;;;;;;;;;;5.30;99.90;;;;;;5093086;28;19908;-74
2021/10/23 04:50:24;;;;;;;;;;;5.30;99.90;;;;;;5074394;28;19915;-77
2021/10/23 04:52:50;;;;;;;;;;;5.30;99.90;;;;;;5092858;28;19908;-76
2021/10/23 04:55:15;;;;;;;;;;;5.20;99.90;;;;;;5093476;28;19908;-75
2021/10/23 04:57:41;;;;;;;;;;;5.10;99.90;;;;;;5093290;28;20033;-76
2021/10/23 05:00:07;;;;;;;;;;;5.10;99.90;;;;;;5092369;28;19908;-76
2021/10/23 05:02:32;;;;;;;;;;;5.00;99.90;;;;;;5073829;28;20405;-75
2021/10/23 05:04:58;;;;;;;;;;;4.90;99.90;;;;;;5072523;28;19914;-75
2021/10/23 05:07:23;;;;;;;;;;;4.80;99.90;;;;;;5054582;28;20378;-76
2021/10/23 05:09:49;;;;;;;;;;;4.80;99.90;;;;;;5071952;28;19920;-75
2021/10/23 05:12:14;;;;;;;;;;;4.80;99.90;;;;;;5054233;28;19975;-75
2021/10/23 05:14:40;;;;;;;;;;;4.80;99.90;;;;;;5072555;28;20397;-74
2021/10/23 05:17:05;;;;;;;;;;;4.80;99.90;;;;;;5072195;28;19915;-76
2021/10/23 05:19:31;;;;;;;;;;;4.80;99.90;;;;;;5072170;28;19908;-76
2021/10/23 05:21:57;;;;;;;;;;;4.90;99.90;;;;;;5072149;28;19917;-76
2021/10/23 05:24:22;;;;;;;;;;;5.00;99.90;;;;;;5072372;28;20370;-74
2021/10/23 05:26:50;;;;;;;;;;;5.00;99.90;;;;;;5072850;28;19909;-74
2021/10/23 05:29:15;;;;;;;;;;;5.00;99.90;;;;;;5072267;28;19961;-74
2021/10/23 05:31:41;;;;;;;;;;;5.00;99.90;;;;;;5083040;28;20396;-74
2021/10/23 05:34:06;;;;;;;;;;;5.00;99.90;;;;;;5092147;28;19930;-73
2021/10/23 05:36:32;;;;;;;;;;;5.00;99.90;;;;;;5092036;28;19908;-74
2021/10/23 05:38:57;;;;;;;;;;;5.00;99.90;;;;;;5092467;28;20398;-74
2021/10/23 05:41:23;;;;;;;;;;;4.90;99.90;;;;;;5092163;28;19998;-74
2021/10/23 05:43:48;;;;;;;;;;;4.80;99.90;;;;;;5074239;28;19908;-74
2021/10/23 05:46:14;;;;;;;;;;;4.80;99.90;;;;;;5092502;28;20260;-75
2021/10/23 05:48:40;;;;;;;;;;;4.80;99.90;;;;;;5092404;28;19987;-75
2021/10/23 05:51:05;;;;;;;;;;;4.80;99.90;;;;;;5091876;28;20342;-75
2021/10/23 05:53:31;;;;;;;;;;;4.90;99.90;;;;;;5091665;28;20322;-74
2021/10/23 05:55:56;;;;;;;;;;;4.90;99.90;;;;;;5092754;28;19908;-75
2021/10/23 05:58:22;;;;;;;;;;;4.90;99.90;;;;;;5092118;28;19919;-74
2021/10/23 06:00:54;;;;;;;;;;;4.90;99.90;;;;;;5087184;28;19919;-75
2021/10/23 06:03:21;;;;;;;;;;;5.00;99.90;;;;;;5071633;28;19915;-75
2021/10/23 06:05:46;;;;;;;;;;;5.00;99.90;;;;;;5071896;28;19917;-74
2021/10/23 06:08:12;;;;;;;;;;;5.00;99.90;;;;;;5071689;28;19909;-74
2021/10/23 06:10:38;;;;;;;;;;;5.10;99.90;;;;;;5071348;28;19921;-75
2021/10/23 06:13:03;;;;;;;;;;;5.10;99.90;;;;;;5053592;28;19908;-74
2021/10/23 06:15:29;;;;;;;;;;;5.10;99.90;;;;;;5071945;28;20007;-74
2021/10/23 06:17:54;;;;;;;;;;;5.10;99.90;;;;;;5071922;28;19915;-75
2021/10/23 06:20:20;;;;;;;;;;;5.20;99.90;;;;;;5071046;28;19928;-74
2021/10/23 06:22:49;;;;;;;;;;;5.20;99.90;;;;;;5053482;28;19908;-74
2021/10/23 06:25:17;;;;;;;;;;;5.20;99.90;;;;;;5053442;28;19931;-75
2021/10/23 06:27:42;;;;;;;;;;;5.30;99.90;;;;;;5071620;28;20472;-74
2021/10/23 06:30:08;;;;;;;;;;;5.30;99.90;;;;;;5071097;28;19909;-74
2021/10/23 06:32:33;;;;;;;;;;;5.40;99.90;;;;;;5090363;28;19937;-75
2021/10/23 06:34:59;;;;;;;;;;;5.50;99.90;;;;;;5091576;28;19908;-75
2021/10/23 06:37:24;;;;;;;;;;;5.50;99.90;;;;;;5091532;28;19915;-75
2021/10/23 06:39:50;;;;;;;;;;;5.60;99.90;;;;;;5090800;28;19908;-74
2021/10/23 06:42:16;;;;;;;;;;;5.80;99.90;;;;;;5073099;28;20275;-75
2021/10/23 06:44:41;;;;;;;;;;;5.90;99.90;;;;;;5091485;28;19991;-75
2021/10/23 06:47:07;;;;;;;;;;;5.90;99.90;;;;;;5091689;28;19915;-75
2021/10/23 06:49:32;;;;;;;;;;;5.90;99.90;;;;;;5091072;28;19912;-74
2021/10/23 06:51:58;;;;;;;;;;;5.90;99.90;;;;;;5091313;28;20366;-75
2021/10/23 06:54:23;;;;;;;;;;;6.00;99.90;;;;;;5091845;28;19913;-75
2021/10/23 06:56:49;;;;;;;;;;;6.00;99.90;;;;;;5092089;28;20400;-75
2021/10/23 06:59:14;;;;;;;;;;;6.10;99.90;;;;;;5073674;28;20339;-74
2021/10/23 07:01:40;;;;;;;;;;;6.10;99.90;;;;;;5079628;28;20337;-76
2021/10/23 07:04:05;;;;;;;;;;;6.10;99.90;;;;;;5071477;28;19908;-76
2021/10/23 07:06:31;;;;;;;;;;;6.10;99.90;;;;;;5053859;28;20263;-76
2021/10/23 07:08:56;;;;;;;;;;;6.10;99.90;;;;;;5071532;28;19908;-75
2021/10/23 07:11:22;;;;;;;;;;;6.10;99.90;;;;;;5071120;28;19921;-77
2021/10/23 07:13:47;;;;;;;;;;;6.10;99.90;;;;;;5071863;28;19962;-74
2021/10/23 07:16:13;;;;;;;;;;;6.20;99.90;;;;;;5071090;28;19969;-74
2021/10/23 07:18:38;;;;;;;;;;;6.20;99.90;;;;;;5071893;28;19909;-76
2021/10/23 07:21:04;;;;;;;;;;;6.30;99.90;;;;;;5074120;28;19912;-75
2021/10/23 07:23:29;;;;;;;;;;;6.30;99.90;;;;;;5075304;28;19908;-74
2021/10/23 07:25:56;;;;;;;;;;;6.30;99.90;;;;;;5057086;28;19908;-74
2021/10/23 07:28:22;;;;;;;;;;;6.50;99.90;;;;;;5074924;28;19940;-74
2021/10/23 07:30:47;;;;;;;;;;;6.60;99.90;;;;;;5078258;28;19916;-74
2021/10/23 07:33:13;;;;;;;;;;;6.80;99.90;;;;;;5095477;28;20293;-75
2021/10/23 07:35:38;;;;;;;;;;;7.00;99.90;;;;;;5095346;28;19908;-76
2021/10/23 07:38:04;;;;;;;;;;;7.10;99.90;;;;;;5094674;28;20366;-74
2021/10/23 07:40:30;;;;;;;;;;;7.10;99.90;;;;;;5094117;28;19935;-75
2021/10/23 07:42:55;;;;;;;;;;;7.10;99.90;;;;;;5094766;28;19908;-73
2021/10/23 07:45:21;;;;;;;;;;;7.20;99.90;;;;;;5096329;28;19955;-75
2021/10/23 07:47:46;;;;;;;;;;;7.30;99.90;;;;;;5097235;28;19972;-74
2021/10/23 07:50:12;;;;;;;;;;;7.40;99.90;;;;;;5094387;28;19912;-74
2021/10/23 07:52:38;;;;;;;;;;;7.40;99.90;;;;;;5094896;28;20344;-73
2021/10/23 07:55:05;;;;;;;;;;;7.50;99.90;;;;;;5095077;28;19908;-74
2021/10/23 07:57:30;;;;;;;;;;;7.50;99.90;;;;;;5095269;28;19908;-74
2021/10/23 07:59:56;;;;;;;;;;;7.70;99.90;;;;;;5093878;28;19915;-74
2021/10/23 08:02:21;;;;;;;;;;;7.80;99.90;;;;;;5076422;28;19919;-76
2021/10/23 08:04:47;;;;;;;;;;;7.90;99.90;;;;;;5074506;28;19908;-76
2021/10/23 08:07:12;;;;;;;;;;;8.00;99.90;;;;;;5074644;28;19912;-76
2021/10/23 08:09:38;;;;;;;;;;;8.10;99.90;;;;;;5074579;28;19912;-72
2021/10/23 08:12:05;;;;;;;;;;;9.60;99.90;;;;;;5074484;28;20426;-74
2021/10/23 08:14:33;;;;;;;;;;;12.10;99.90;;;;;;5074971;28;19971;-74
2021/10/23 08:16:59;;;;;;;;;;;12.10;99.90;;;;;;5074373;28;20306;-75
2021/10/23 08:19:24;;;;;;;;;;;10.60;99.90;;;;;;5074190;28;19909;-76
2021/10/23 08:21:50;;;;;;;;;;;10.10;99.90;;;;;;5055247;28;20146;-76
2021/10/23 08:24:16;;;;;;;;;;;12.40;99.90;;;;;;5073562;28;19969;-75
2021/10/23 08:26:42;;;;;;;;;;;15.40;99.90;;;;;;5073334;28;19908;-75
2021/10/23 08:29:08;;;;;;;;;;;15.20;99.90;;;;;;5074481;28;19963;-74
2021/10/23 08:31:33;;;;;;;;;;;12.90;99.90;;;;;;5083634;28;19916;-76
2021/10/23 08:33:59;;;;;;;;;;;11.90;99.90;;;;;;5094097;28;19908;-75
2021/10/23 08:36:24;;;;;;;;;;;11.90;99.90;;;;;;5093454;28;20410;-75
2021/10/23 08:38:51;;;;;;;;;;;11.70;99.90;;;;;;5093258;28;19915;-76
2021/10/23 08:41:17;;;;;;;;;;;12.40;99.90;;;;;;5093314;28;19920;-75
2021/10/23 08:43:43;;;;;;;;;;;15.90;99.90;;;;;;5093915;28;19934;-76
2021/10/23 08:46:22;;;;;;;;;;;18.10;98.10;;;;;;5093192;28;19912;-76
2021/10/23 08:48:51;;;;;;;;;;;19.60;93.70;;;;;;5093524;28;19978;-75
2021/10/23 08:51:17;;;;;;;;;;;17.30;94.90;;;;;;5092957;28;19919;-76
2021/10/23 08:53:43;;;;;;;;;;;14.80;96.60;;;;;;5093352;28;19912;-76
2021/10/23 08:56:09;;;;;;;;;;;13.50;99.90;;;;;;5093381;28;19908;-76
2021/10/23 08:58:35;;;;;;;;;;;13.10;99.90;;;;;;5093409;28;19908;-74
2021/10/23 09:01:02;;;;;;;;;;;13.90;99.30;;;;;;5086553;28;19912;-74
2021/10/23 09:03:28;;;;;;;;;;;12.70;99.90;;;;;;5072489;28;20000;-75
2021/10/23 09:05:53;;;;;;;;;;;12.30;99.90;;;;;;5055152;28;19947;-75
2021/10/23 09:08:20;;;;;;;;;;;13.40;99.90;;;;;;5072682;28;19908;-74
2021/10/23 09:10:47;;;;;;;;;;;16.20;97.40;;;;;;5071252;28;19916;-74
2021/10/23 09:13:13;;;;;;;;;;;18.70;95.10;;;;;;5069285;28;19913;-74
2021/10/23 09:15:39;;;;;;;;;;;19.00;93.20;;;;;;5069418;28;20282;-77
2021/10/23 09:18:06;;;;;;;;;;;20.00;91.30;;;;;;5071739;28;20337;-76
2021/10/23 09:20:39;;;;;;;;;;;19.90;91.90;;;;;;5071991;28;20018;-75
2021/10/23 09:23:04;;;;;;;;;;;19.10;91.40;;;;;;5072717;28;19915;-75
2021/10/23 09:25:34;;;;;;;;;;;18.40;91.70;;;;;;5072655;28;19908;-75
2021/10/23 09:28:00;;;;;;;;;;;19.50;90.40;;;;;;5072095;28;19915;-76
2021/10/23 09:30:37;;;;;;;;;;;21.10;89.10;;;;;;5073039;28;19909;-76
2021/10/23 09:33:07;;;;;;;;;;;21.10;88.60;;;;;;5092275;28;19916;-76
2021/10/23 09:35:37;;;;;;;;;;;21.10;85.50;;;;;;5092175;28;19916;-74
2021/10/23 09:38:03;;;;;;;;;;;21.50;85.50;;;;;;5074023;28;20385;-74
2021/10/23 09:40:29;;;;;;;;;;;20.70;82.40;;;;;;5070357;28;19919;-74
2021/10/23 09:43:14;;;;;;;;;;;21.20;84.20;;;;;;5091812;28;19908;-76
2021/10/23 09:46:00;;;;;;;;;;;21.30;82.40;;;;;;5092216;28;19915;-75
2021/10/23 09:48:35;;;;;;;;;;;19.90;83.70;;;;;;5091544;28;19908;-75
2021/10/23 09:51:19;;;;;;;;;;;19.40;84.80;;;;;;5091528;28;19919;-75
2021/10/23 09:53:45;;;;;;;;;;;16.40;90.50;;;;;;5092138;28;19969;-76
2021/10/23 09:56:12;;;;;;;;;;;15.40;92.50;;;;;;5092236;28;19995;-75
2021/10/23 09:58:38;;;;;;;;;;;16.10;92.30;;;;;;5092205;28;19919;-76
2021/10/23 10:01:04;;;;;;;;;;;14.70;92.90;;;;;;5084980;28;19912;-75
2021/10/23 10:03:30;;;;;;;;;;;13.90;95.90;;;;;;5071548;28;19920;-76
2021/10/23 10:05:56;;;;;;;;;;;13.30;96.40;;;;;;5071883;28;19912;-76
2021/10/23 10:08:22;;;;;;;;;;;14.10;95.70;;;;;;5072113;28;19914;-76
2021/10/23 10:10:48;;;;;;;;;;;14.10;95.20;;;;;;5071597;28;19916;-76
2021/10/23 10:13:15;;;;;;;;;;;14.10;93.80;;;;;;5071996;28;20290;-74
2021/10/23 10:15:46;;;;;;;;;;;14.60;94.20;;;;;;5071450;28;20231;-76
2021/10/23 10:18:13;;;;;;;;;;;15.30;94.10;;;;;;5072328;28;19908;-75
2021/10/23 10:20:41;;;;;;;;;;;14.90;93.40;;;;;;5053709;28;19919;-76
2021/10/23 10:23:10;;;;;;;;;;;14.50;92.50;;;;;;5071250;28;19908;-76
2021/10/23 10:25:36;;;;;;;;;;;12.90;95.20;;;;;;5071159;28;19909;-76
2021/10/23 10:28:12;;;;;;;;;;;12.60;96.40;;;;;;5071171;28;20359;-76
2021/10/23 10:30:39;;;;;;;;;;;12.10;96.50;;;;;;5073466;28;19915;-75
2021/10/23 10:33:43;;;;;;;;;;;13.00;96.50;;;;;;5091305;28;19908;-76
2021/10/23 10:39:06;;;;;;;;;;;12.60;96.50;;;;;;5091501;28;19914;-76
2021/10/23 10:44:15;;;;;;;;;;;12.50;97.90;;;;;;5093680;28;19909;-78
2021/10/23 10:47:00;;;;;;;;;;;12.40;96.50;;;;;;5077103;28;20283;-76
2021/10/23 10:49:38;;;;;;;;;;;13.00;97.60;;;;;;5062527;28;19908;-77
2021/10/23 10:52:24;;;;;;;;;;;12.90;95.00;;;;;;5108211;28;19908;-76
2021/10/23 10:55:08;;;;;;;;;;;12.90;93.60;;;;;;5091835;28;19959;-76
2021/10/23 10:57:53;;;;;;;;;;;12.90;95.00;;;;;;5091841;28;19912;-78
2021/10/23 11:00:18;;;;;;;;;;;12.70;96.20;;;;;;5095880;28;19908;-78
2021/10/23 11:02:44;;;;;;;;;;;12.30;96.70;;;;;;5075657;28;19984;-77
2021/10/23 11:05:10;;;;;;;;;;;12.20;97.30;;;;;;5075624;28;19908;-78
2021/10/23 11:07:54;;;;;;;;;;;12.00;97.70;;;;;;5075599;28;19913;-77
2021/10/23 11:10:39;;;;;;;;;;;12.00;96.80;;;;;;5066793;28;20321;-77
2021/10/23 11:13:23;;;;;;;;;;;11.90;96.80;;;;;;5076072;28;19916;-77
2021/10/23 11:15:48;;;;;;;;;;;11.90;97.10;;;;;;5084895;28;19912;-77
2021/10/23 11:18:15;;;;;;;;;;;12.10;97.10;;;;;;5095164;28;19915;-77
2021/10/23 11:20:42;;;;;;;;;;;12.00;96.40;;;;;;5095012;28;19912;-75
2021/10/23 11:23:08;;;;;;;;;;;12.10;96.30;;;;;;5096353;28;20332;-77
2021/10/23 11:25:37;;;;;;;;;;;11.90;96.30;;;;;;5077812;28;19926;-77
2021/10/23 11:28:08;;;;;;;;;;;11.70;96.70;;;;;;5076850;28;19916;-77
2021/10/23 11:30:39;;;;;;;;;;;11.70;97.80;;;;;;5091889;28;19912;-76
2021/10/23 11:33:06;;;;;;;;;;;11.70;99.20;;;;;;5074490;28;19931;-77
2021/10/23 11:35:33;;;;;;;;;;;11.50;99.60;;;;;;5056375;28;19909;-76
2021/10/23 11:38:00;;;;;;;;;;;11.70;99.90;;;;;;5074169;28;19991;-77
2021/10/23 11:40:25;;;;;;;;;;;11.80;99.90;;;;;;5056153;28;19969;-77
2021/10/23 11:42:52;;;;;;;;;;;11.70;99.80;;;;;;5074587;28;20137;-77
2021/10/23 11:45:23;;;;;;;;;;;11.50;99.90;;;;;;5074315;28;19908;-76
2021/10/23 11:47:50;;;;;;;;;;;11.30;99.90;;;;;;5054317;28;19915;-76
2021/10/23 11:50:25;;;;;;;;;;;11.00;99.90;;;;;;5055763;28;19916;-77
2021/10/23 11:52:51;;;;;;;;;;;10.90;99.90;;;;;;5074048;28;19909;-77
2021/10/23 11:55:24;;;;;;;;;;;10.60;99.90;;;;;;5055636;28;19909;-77
2021/10/23 11:57:54;;;;;;;;;;;10.40;99.90;;;;;;5073836;28;19938;-75
2021/10/23 12:00:19;;;;;;;;;;;10.20;99.90;;;;;;5055979;28;19908;-77
2021/10/23 12:02:50;;;;;;;;;;;10.10;99.90;;;;;;5063857;28;19970;-77
2021/10/23 12:05:17;;;;;;;;;;;10.00;99.90;;;;;;5054975;28;19909;-74
2021/10/23 12:07:43;;;;;;;;;;;10.10;99.90;;;;;;5073687;28;20302;-76
2021/10/23 12:10:08;;;;;;;;;;;10.30;99.90;;;;;;5073286;28;19916;-75
2021/10/23 12:12:34;;;;;;;;;;;10.40;99.90;;;;;;5055653;28;19913;-77
2021/10/23 12:15:13;;;;;;;;;;;10.40;99.90;;;;;;5073422;28;19952;-77
2021/10/23 12:17:39;;;;;;;;;;;10.50;99.90;;;;;;5073729;28;19916;-76
2021/10/23 12:20:14;;;;;;;;;;;10.70;99.90;;;;;;5072900;28;19909;-75
2021/10/23 12:22:40;;;;;;;;;;;11.10;99.70;;;;;;5073255;28;19999;-76
2021/10/23 12:25:09;;;;;;;;;;;11.40;98.50;;;;;;5054999;28;19955;-77
2021/10/23 12:27:35;;;;;;;;;;;11.80;99.40;;;;;;5090517;28;19958;-74
2021/10/23 12:30:01;;;;;;;;;;;12.00;97.30;;;;;;5073860;28;20344;-77
2021/10/23 12:32:26;;;;;;;;;;;11.80;96.50;;;;;;5087986;28;19958;-77
2021/10/23 12:34:52;;;;;;;;;;;11.70;97.30;;;;;;5084561;28;20373;-77
2021/10/23 12:37:27;;;;;;;;;;;11.40;96.60;;;;;;5072602;28;19954;-77
2021/10/23 12:40:08;;;;;;;;;;;11.60;99.00;;;;;;5071062;28;19975;-77
2021/10/23 12:42:34;;;;;;;;;;;12.10;98.50;;;;;;5082668;28;19916;-76
2021/10/23 12:45:00;;;;;;;;;;;11.90;95.80;;;;;;5081335;28;20297;-76
2021/10/23 12:47:25;;;;;;;;;;;11.80;96.10;;;;;;5083278;28;19909;-76
2021/10/23 12:49:51;;;;;;;;;;;11.60;96.70;;;;;;5071735;28;19913;-77
2021/10/23 12:52:16;;;;;;;;;;;11.60;97.10;;;;;;5073188;28;19912;-77
2021/10/23 12:54:42;;;;;;;;;;;11.50;98.50;;;;;;5092894;28;20151;-76
2021/10/23 12:57:07;;;;;;;;;;;11.40;99.40;;;;;;5092609;28;20380;-76
2021/10/23 12:59:33;;;;;;;;;;;11.30;99.10;;;;;;5072242;28;19978;-76
2021/10/23 13:01:58;;;;;;;;;;;11.30;98.90;;;;;;5076314;28;19967;-77
2021/10/23 13:04:24;;;;;;;;;;;11.10;99.10;;;;;;5071622;28;19915;-76
2021/10/23 13:06:49;;;;;;;;;;;11.00;98.50;;;;;;5073927;28;19915;-77
2021/10/23 13:09:15;;;;;;;;;;;11.00;99.30;;;;;;5087797;28;19998;-76
2021/10/23 13:11:40;;;;;;;;;;;10.80;99.00;;;;;;5082760;28;19912;-76
2021/10/23 13:14:06;;;;;;;;;;;10.90;99.20;;;;;;5082773;28;19912;-76
2021/10/23 13:16:32;;;;;;;;;;;10.90;99.70;;;;;;5080975;28;19916;-75
2021/10/23 13:18:57;;;;;;;;;;;10.90;99.70;;;;;;5071109;28;19913;-76
2021/10/23 13:21:23;;;;;;;;;;;11.00;99.80;;;;;;5085078;28;20384;-76
2021/10/23 13:23:48;;;;;;;;;;;11.00;99.40;;;;;;5080130;28;19959;-75
2021/10/23 13:26:14;;;;;;;;;;;11.00;99.40;;;;;;5073967;28;19978;-77
2021/10/23 13:28:39;;;;;;;;;;;11.00;99.00;;;;;;5092087;28;19953;-77
2021/10/23 13:31:05;;;;;;;;;;;11.00;99.10;;;;;;5084528;28;19908;-75
2021/10/23 13:33:30;;;;;;;;;;;11.10;99.90;;;;;;5071850;28;19908;-75
2021/10/23 13:35:56;;;;;;;;;;;10.90;99.90;;;;;;5053432;28;19941;-76
2021/10/23 13:38:22;;;;;;;;;;;10.80;97.90;;;;;;5053506;28;19958;-76
2021/10/23 13:40:47;;;;;;;;;;;10.70;99.10;;;;;;5071296;28;20247;-76
2021/10/23 13:43:13;;;;;;;;;;;10.80;99.90;;;;;;5079676;28;19923;-76
2021/10/23 13:45:38;;;;;;;;;;;10.90;98.40;;;;;;5082127;28;20350;-76
2021/10/23 13:48:04;;;;;;;;;;;10.80;97.80;;;;;;5073955;28;20386;-76
2021/10/23 13:50:32;;;;;;;;;;;10.80;98.30;;;;;;5070683;28;20255;-76
2021/10/23 13:52:58;;;;;;;;;;;10.80;97.60;;;;;;5071418;28;19908;-76
2021/10/23 13:55:23;;;;;;;;;;;10.90;97.90;;;;;;5071211;28;20378;-76
2021/10/23 13:57:49;;;;;;;;;;;11.00;98.10;;;;;;5072204;28;19915;-76
2021/10/23 14:00:16;;;;;;;;;;;11.00;98.30;;;;;;5073338;28;19908;-76
2021/10/23 14:02:41;;;;;;;;;;;11.10;98.80;;;;;;5061056;28;19916;-76
2021/10/23 14:05:07;;;;;;;;;;;11.00;98.80;;;;;;5078277;28;19920;-76
2021/10/23 14:07:32;;;;;;;;;;;11.00;98.30;;;;;;5076882;28;19916;-76
2021/10/23 14:09:58;;;;;;;;;;;10.90;98.40;;;;;;5071183;28;20325;-76
2021/10/23 14:12:23;;;;;;;;;;;10.90;98.50;;;;;;5072272;28;19908;-76
2021/10/23 14:14:49;;;;;;;;;;;10.80;97.70;;;;;;5072018;28;20007;-76
2021/10/23 14:17:14;;;;;;;;;;;10.80;98.10;;;;;;5072157;28;19913;-76
2021/10/23 14:19:40;;;;;;;;;;;10.70;98.20;;;;;;5074349;28;20390;-76
2021/10/23 14:22:10;;;;;;;;;;;10.70;98.60;;;;;;5076725;28;19913;-77
2021/10/23 14:24:35;;;;;;;;;;;10.60;98.10;;;;;;5076919;28;20626;-74
2021/10/23 14:27:03;;;;;;;;;;;10.70;99.90;;;;;;5075140;28;19908;-75